Time;durP1;ratioP1;P1;durP2;ratioP2;P2;SDS_P1;SDS_P2;PMS_P1;PMS_P2;Temp;Humidity;BMP_temperature;BMP_pressure;BME280_temperature;BME280_humidity;BME280_pressure;Samples;Min_cycle;Max_cycle;Signal;HPM_P1;HPM_P2
2022/01/07 00:01:52;;;;;;;;;19.33;17.67;;;;;4.23;100.00;101532.97;5067616;28;44698;-83
2022/01/07 00:04:17;;;;;;;;;22.00;17.33;;;;;4.17;100.00;101523.50;5071100;28;44783;-84
2022/01/07 00:06:43;;;;;;;;;23.33;16.33;;;;;4.12;100.00;101512.25;5072516;28;44830;-83
2022/01/07 00:09:08;;;;;;;;;15.67;12.00;;;;;4.05;100.00;101514.16;5069954;28;45023;-85
2022/01/07 00:11:33;;;;;;;;;15.00;13.33;;;;;3.99;100.00;101508.22;5066070;28;44800;-84
2022/01/07 00:13:59;;;;;;;;;13.00;13.00;;;;;3.91;100.00;101500.53;5057113;28;44862;-85
2022/01/07 00:16:24;;;;;;;;;13.00;12.00;;;;;3.83;100.00;101519.16;5059410;28;45351;-84
2022/01/07 00:18:50;;;;;;;;;24.00;15.67;;;;;3.76;100.00;101508.81;5059004;28;45085;-85
2022/01/07 00:21:15;;;;;;;;;14.67;13.00;;;;;3.71;100.00;101502.84;5060122;28;44826;-85
2022/01/07 00:23:41;;;;;;;;;10.67;9.00;;;;;3.69;100.00;101494.16;5060305;28;44689;-84
2022/01/07 00:26:06;;;;;;;;;18.00;16.67;;;;;3.67;100.00;101494.16;5060833;28;44895;-85
2022/01/07 00:28:31;;;;;;;;;13.00;13.00;;;;;3.65;100.00;101485.47;5062026;28;45496;-85
2022/01/07 00:30:57;;;;;;;;;19.33;14.00;;;;;3.61;100.00;101492.56;5065407;28;44778;-84
2022/01/07 00:33:22;;;;;;;;;19.67;13.00;;;;;3.58;100.00;101476.91;5083664;28;44831;-84
2022/01/07 00:35:48;;;;;;;;;19.67;14.33;;;;;3.53;100.00;101472.63;5068872;28;44722;-84
2022/01/07 00:38:14;;;;;;;;;20.67;12.67;;;;;3.50;100.00;101472.75;5069034;27;46821;-84
2022/01/07 00:40:39;;;;;;;;;14.67;9.67;;;;;3.42;100.00;101467.66;5089478;27;44752;-86
2022/01/07 00:43:05;;;;;;;;;14.00;14.00;;;;;3.38;100.00;101457.28;5090201;27;45258;-83
2022/01/07 00:45:31;;;;;;;;;14.00;13.00;;;;;3.34;100.00;101460.00;5086622;28;45195;-83
2022/01/07 00:47:57;;;;;;;;;16.00;10.67;;;;;3.33;100.00;101468.75;5086389;27;45199;-85
2022/01/07 00:50:25;;;;;;;;;13.33;11.33;;;;;3.29;100.00;101461.88;5088040;28;44818;-85
2022/01/07 00:52:51;;;;;;;;;13.67;9.67;;;;;3.29;100.00;101471.53;5085401;27;44823;-84
2022/01/07 00:55:17;;;;;;;;;13.67;12.33;;;;;3.25;100.00;101460.22;5083792;27;45573;-84
2022/01/07 00:57:43;;;;;;;;;16.00;11.33;;;;;3.24;100.00;101462.88;5083028;27;46945;-83
2022/01/07 01:00:11;;;;;;;;;12.67;12.00;;;;;3.25;100.00;101472.50;5078540;27;45402;-84
2022/01/07 01:02:38;;;;;;;;;17.00;15.33;;;;;3.23;100.00;101471.66;5080779;27;44767;-83
2022/01/07 01:05:06;;;;;;;;;17.33;12.00;;;;;3.22;100.00;101473.44;5079620;27;44955;-83
2022/01/07 01:07:31;;;;;;;;;16.67;11.00;;;;;3.23;100.00;101467.25;5080749;27;45723;-83
2022/01/07 01:09:56;;;;;;;;;14.00;12.33;;;;;3.23;100.00;101462.00;5082797;27;44812;-85
2022/01/07 01:12:22;;;;;;;;;8.67;8.00;;;;;3.25;100.00;101454.13;5084541;27;45032;-83
2022/01/07 01:14:47;;;;;;;;;9.00;8.33;;;;;3.23;100.00;101459.38;5090458;27;44856;-84
2022/01/07 01:17:13;;;;;;;;;13.67;12.00;;;;;3.22;100.00;101452.41;5084769;27;47213;-83
2022/01/07 01:19:38;;;;;;;;;14.33;13.00;;;;;3.25;100.00;101449.72;5083446;28;45315;-85
2022/01/07 01:22:05;;;;;;;;;13.00;11.00;;;;;3.27;100.00;101447.06;5083584;27;44872;-83
2022/01/07 01:24:30;;;;;;;;;13.00;10.67;;;;;3.28;100.00;101448.78;5083147;28;44771;-84
2022/01/07 01:26:55;;;;;;;;;18.33;13.67;;;;;3.28;100.00;101436.50;5079693;27;45365;-83
2022/01/07 01:29:22;;;;;;;;;17.00;13.00;;;;;3.31;100.00;101439.06;5081139;27;44932;-83
2022/01/07 01:31:48;;;;;;;;;14.67;10.00;;;;;3.32;100.00;101443.41;5085397;28;45089;-84
2022/01/07 01:34:14;;;;;;;;;18.00;11.00;;;;;3.31;100.00;101449.56;5082225;28;45485;-83
2022/01/07 01:36:39;;;;;;;;;15.33;11.67;;;;;3.32;100.00;101447.81;5080065;28;45059;-83
2022/01/07 01:39:05;;;;;;;;;18.33;13.00;;;;;3.31;100.00;101436.44;5068585;28;45309;-83
2022/01/07 01:41:31;;;;;;;;;10.00;10.00;;;;;3.31;100.00;101446.09;5065296;28;45384;-84
2022/01/07 01:43:57;;;;;;;;;15.00;13.33;;;;;3.31;100.00;101454.81;5065368;28;45635;-84
2022/01/07 01:46:22;;;;;;;;;12.33;8.00;;;;;3.34;100.00;101449.50;5066394;28;45100;-85
2022/01/07 01:48:47;;;;;;;;;14.33;14.33;;;;;3.34;100.00;101444.25;5065864;28;44734;-83
2022/01/07 01:51:13;;;;;;;;;17.67;14.67;;;;;3.37;100.00;101447.69;5067534;28;45097;-83
2022/01/07 01:53:40;;;;;;;;;17.33;16.67;;;;;3.36;100.00;101454.69;5065035;28;45236;-85
2022/01/07 01:56:06;;;;;;;;;14.67;14.67;;;;;3.40;100.00;101447.63;5064986;28;45062;-84
2022/01/07 01:58:32;;;;;;;;;18.00;14.00;;;;;3.41;100.00;101459.84;5065912;28;45216;-85
2022/01/07 02:00:57;;;;;;;;;19.00;17.00;;;;;3.41;100.00;101444.94;5065282;28;44650;-84
2022/01/07 02:03:23;;;;;;;;;14.33;13.33;;;;;3.46;100.00;101452.69;5061727;28;45278;-84
2022/01/07 02:05:49;;;;;;;;;14.00;13.00;;;;;3.50;100.00;101433.34;5060114;28;45334;-84
2022/01/07 02:08:14;;;;;;;;;14.00;12.33;;;;;3.52;100.00;101419.25;5058650;28;45596;-85
2022/01/07 02:10:40;;;;;;;;;12.00;9.33;;;;;3.55;100.00;101424.44;5056971;28;44805;-83
2022/01/07 02:13:06;;;;;;;;;14.00;12.00;;;;;3.58;100.00;101420.88;5057223;28;44819;-86
2022/01/07 02:15:32;;;;;;;;;14.67;12.00;;;;;3.61;100.00;101424.25;5057836;27;45184;-84
2022/01/07 02:17:57;;;;;;;;;18.67;15.33;;;;;3.59;100.00;101420.81;5058368;28;44754;-84
2022/01/07 02:20:25;;;;;;;;;16.67;12.33;;;;;3.63;100.00;101423.34;5057695;28;44828;-83
2022/01/07 02:22:52;;;;;;;;;17.67;14.00;;;;;3.64;100.00;101410.19;5061059;28;45258;-84
2022/01/07 02:25:20;;;;;;;;;13.00;12.67;;;;;3.68;100.00;101414.47;5044858;28;45301;-85
2022/01/07 02:27:47;;;;;;;;;14.67;13.00;;;;;3.71;100.00;101405.63;5059340;28;45522;-84
2022/01/07 02:30:26;;;;;;;;;12.00;12.00;;;;;3.71;100.00;101410.88;5057201;28;45240;-85
2022/01/07 02:32:51;;;;;;;;;16.00;14.00;;;;;3.75;100.00;101404.63;5063734;28;45323;-84
2022/01/07 02:35:20;;;;;;;;;13.33;13.33;;;;;3.78;100.00;101396.69;5063706;28;44986;-85
2022/01/07 02:37:46;;;;;;;;;19.00;14.00;;;;;3.78;100.00;101401.94;5062896;28;44895;-85
2022/01/07 02:40:12;;;;;;;;;12.67;12.00;;;;;3.76;100.00;101399.31;5056595;28;44866;-84
2022/01/07 02:42:38;;;;;;;;;8.67;8.00;;;;;3.74;100.00;101384.53;5059099;28;44800;-85
2022/01/07 02:45:08;;;;;;;;;13.67;11.33;;;;;3.74;100.00;101380.13;5060402;28;45258;-84
2022/01/07 02:47:49;;;;;;;;;13.67;12.00;;;;;3.74;100.00;101392.41;5056613;28;45326;-83
2022/01/07 02:50:21;;;;;;;;;13.67;12.67;;;;;3.74;100.00;101380.13;5056461;28;45252;-84
2022/01/07 02:52:47;;;;;;;;;11.00;9.67;;;;;3.77;100.00;101379.16;5064043;28;44875;-84
2022/01/07 02:55:13;;;;;;;;;17.00;15.33;;;;;3.77;100.00;101380.06;5066251;28;45790;-85
2022/01/07 02:57:39;;;;;;;;;14.00;12.33;;;;;3.75;100.00;101378.34;5062923;28;45102;-84
2022/01/07 03:00:06;;;;;;;;;13.00;12.00;;;;;3.76;100.00;101372.19;5062582;28;44737;-85
2022/01/07 03:02:32;;;;;;;;;18.00;14.00;;;;;3.77;100.00;101372.16;5067791;28;45406;-84
2022/01/07 03:04:58;;;;;;;;;13.00;11.67;;;;;3.82;100.00;101374.63;5062280;28;45178;-84
2022/01/07 03:07:24;;;;;;;;;16.00;12.67;;;;;3.83;100.00;101379.00;5057962;28;45395;-83
2022/01/07 03:09:49;;;;;;;;;15.00;12.00;;;;;3.86;100.00;101373.66;5061302;28;45411;-83
2022/01/07 03:12:15;;;;;;;;;11.33;9.67;;;;;3.86;100.00;101374.50;5061973;28;45564;-84
2022/01/07 03:14:40;;;;;;;;;11.33;11.33;;;;;3.89;100.00;101370.94;5058761;28;47021;-83
2022/01/07 03:17:06;;;;;;;;;14.67;13.33;;;;;3.92;100.00;101377.88;5072177;28;44815;-83
2022/01/07 03:19:31;;;;;;;;;13.00;11.67;;;;;3.94;100.00;101369.03;5070254;28;45414;-84
2022/01/07 03:21:56;;;;;;;;;9.33;9.33;;;;;3.97;100.00;101368.94;5060154;28;44803;-83
2022/01/07 03:24:22;;;;;;;;;14.00;13.00;;;;;3.96;100.00;101376.88;5061653;28;45236;-84
2022/01/07 03:26:48;;;;;;;;;11.00;7.33;;;;;3.98;100.00;101375.06;5062076;28;44762;-84
2022/01/07 03:29:14;;;;;;;;;17.00;10.33;;;;;3.99;100.00;101372.38;5062001;28;44816;-83
2022/01/07 03:31:39;;;;;;;;;9.67;9.00;;;;;4.01;100.00;101369.69;5065114;28;44952;-82
2022/01/07 03:34:05;;;;;;;;;14.00;12.00;;;;;4.05;100.00;101363.44;5062517;28;46460;-83
2022/01/07 03:36:30;;;;;;;;;14.00;12.67;;;;;4.03;100.00;101363.50;5066866;28;44867;-84
2022/01/07 03:38:57;;;;;;;;;8.67;8.67;;;;;4.07;100.00;101366.91;5079565;27;44785;-83
2022/01/07 03:41:22;;;;;;;;;12.67;10.33;;;;;4.07;100.00;101364.28;5088457;27;44939;-84
2022/01/07 03:43:48;;;;;;;;;8.33;8.33;;;;;4.07;100.00;101359.88;5082039;27;45581;-83
2022/01/07 03:46:13;;;;;;;;;8.33;8.33;;;;;4.10;100.00;101356.28;5078855;27;44761;-84
2022/01/07 03:48:39;;;;;;;;;15.00;9.00;;;;;4.05;100.00;101345.91;5082344;27;44807;-84
2022/01/07 03:51:04;;;;;;;;;9.33;9.33;;;;;4.06;100.00;101338.88;5080441;28;45340;-84
2022/01/07 03:53:29;;;;;;;;;10.33;9.00;;;;;4.07;100.00;101343.25;5078937;27;45414;-84
2022/01/07 03:55:55;;;;;;;;;8.67;8.67;;;;;4.05;100.00;101343.28;5080714;28;44732;-84
2022/01/07 03:58:21;;;;;;;;;10.00;10.00;;;;;4.04;100.00;101343.34;5080690;28;44731;-84
2022/01/07 04:00:47;;;;;;;;;10.33;8.00;;;;;4.08;100.00;101342.34;5080673;28;44838;-84
2022/01/07 04:03:16;;;;;;;;;13.00;10.00;;;;;4.09;100.00;101325.66;5080546;27;45149;-84
2022/01/07 04:05:42;;;;;;;;;12.33;8.67;;;;;4.07;100.00;101330.09;5079666;28;44795;-84
2022/01/07 04:08:08;;;;;;;;;11.33;7.00;;;;;4.06;100.00;101339.75;5080091;28;44757;-83
2022/01/07 04:10:33;;;;;;;;;5.67;3.00;;;;;4.10;100.00;101335.25;5080508;27;45504;-84
2022/01/07 04:12:59;;;;;;;;;9.00;7.67;;;;;4.11;100.00;101342.25;5082243;27;45411;-84
2022/01/07 04:15:24;;;;;;;;;9.33;7.00;;;;;4.13;100.00;101327.28;5084732;27;45266;-84
2022/01/07 04:17:52;;;;;;;;;8.67;7.00;;;;;4.15;100.00;101321.97;5085844;27;44701;-84
2022/01/07 04:20:21;;;;;;;;;11.67;9.67;;;;;4.16;100.00;101310.53;5083838;27;44766;-84
2022/01/07 04:22:47;;;;;;;;;11.00;8.67;;;;;4.13;100.00;101315.00;5062669;28;45309;-84
2022/01/07 04:25:17;;;;;;;;;9.50;8.00;;;;;4.12;100.00;101300.13;5080873;27;44815;-83
2022/01/07 04:27:47;;;;;;;;;7.33;7.33;;;;;4.13;100.00;101312.38;5080753;27;45374;-84
2022/01/07 04:30:14;;;;;;;;;9.67;9.00;;;;;4.14;100.00;101307.97;5063136;28;44892;-83
2022/01/07 04:32:41;;;;;;;;;7.00;6.00;;;;;4.18;100.00;101308.75;5080931;27;45292;-83
2022/01/07 04:35:07;;;;;;;;;6.67;6.67;;;;;4.18;100.00;101303.47;5080822;27;45412;-84
2022/01/07 04:37:33;;;;;;;;;7.33;7.00;;;;;4.16;100.00;101305.28;5084566;28;44728;-84
2022/01/07 04:39:58;;;;;;;;;12.00;7.00;;;;;4.17;100.00;101312.28;5066113;28;45313;-85
2022/01/07 04:42:24;;;;;;;;;15.67;7.67;;;;;4.18;100.00;101303.47;5064548;28;45239;-84
2022/01/07 04:44:49;;;;;;;;;11.33;9.00;;;;;4.18;100.00;101304.34;5066153;28;44646;-83
2022/01/07 04:47:15;;;;;;;;;11.00;8.33;;;;;4.18;100.00;101303.47;5062229;28;44772;-84
2022/01/07 04:49:40;;;;;;;;;9.00;8.67;;;;;4.19;100.00;101305.19;5064150;28;45345;-83
2022/01/07 04:52:06;;;;;;;;;10.00;7.00;;;;;4.20;100.00;101305.13;5070498;28;45135;-84
2022/01/07 04:54:32;;;;;;;;;10.67;8.33;;;;;4.21;100.00;101319.16;5075093;28;44605;-84
2022/01/07 04:56:58;;;;;;;;;7.33;6.33;;;;;4.19;100.00;101323.59;5070861;28;45224;-85
2022/01/07 04:59:23;;;;;;;;;8.67;8.67;;;;;4.23;100.00;101312.94;5072503;28;44743;-84
2022/01/07 05:01:49;;;;;;;;;11.00;7.25;;;;;4.25;100.00;101313.75;5068921;28;46792;-83
2022/01/07 05:04:14;;;;;;;;;8.00;6.00;;;;;4.25;100.00;101315.50;5065517;28;44670;-84
2022/01/07 05:06:47;;;;;;;;;7.00;7.00;;;;;4.25;100.00;101300.59;5060712;28;45327;-84
2022/01/07 05:09:17;;;;;;;;;3.00;2.00;;;;;4.22;100.00;101294.59;5064226;28;45382;-85
2022/01/07 05:11:47;;;;;;;;;12.00;10.00;;;;;4.18;100.00;101300.84;5046634;28;46723;-84
2022/01/07 05:14:14;;;;;;;;;4.00;4.00;;;;;4.10;100.00;101286.16;5066304;28;44777;-83
2022/01/07 05:16:40;;;;;;;;;9.67;8.00;;;;;4.05;100.00;101295.97;5059926;28;45468;-84
2022/01/07 05:19:06;;;;;;;;;8.33;6.67;;;;;4.03;100.00;101292.53;5059785;28;44815;-84
2022/01/07 05:21:31;;;;;;;;;7.00;5.33;;;;;3.99;100.00;101295.28;5058300;28;45559;-84
2022/01/07 05:23:57;;;;;;;;;8.00;6.67;;;;;3.98;100.00;101299.69;5057090;28;45277;-84
2022/01/07 05:26:22;;;;;;;;;9.67;6.33;;;;;3.97;100.00;101302.38;5059211;28;45237;-84
2022/01/07 05:28:50;;;;;;;;;6.00;4.00;;;;;3.90;100.00;101303.47;5058548;28;45351;-84
2022/01/07 05:31:17;;;;;;;;;5.33;5.00;;;;;3.91;100.00;101311.28;5060345;28;45121;-84
2022/01/07 05:33:42;;;;;;;;;11.67;7.33;;;;;3.91;100.00;101316.53;5061286;28;45019;-83
2022/01/07 05:36:08;;;;;;;;;4.25;4.25;;;;;3.91;100.00;101313.91;5064122;28;45426;-83
2022/01/07 05:38:33;;;;;;;;;11.00;7.33;;;;;3.90;100.00;101317.47;5065238;28;44859;-84
2022/01/07 05:40:59;;;;;;;;;10.25;5.00;;;;;3.89;100.00;101315.75;5060636;28;45392;-83
2022/01/07 05:43:24;;;;;;;;;12.33;4.00;;;;;3.88;100.00;101314.03;5061477;28;45448;-84
2022/01/07 05:45:49;;;;;;;;;6.75;5.00;;;;;3.86;100.00;101307.94;5063073;28;44950;-86
2022/01/07 05:48:15;;;;;;;;;7.00;5.50;;;;;3.86;100.00;101307.94;5059867;28;45495;-84
2022/01/07 05:50:40;;;;;;;;;12.33;7.67;;;;;3.85;100.00;101307.09;5058703;28;45239;-85
2022/01/07 05:53:06;;;;;;;;;7.00;6.00;;;;;3.84;100.00;101299.25;5058425;28;44821;-84
2022/01/07 05:55:31;;;;;;;;;7.67;5.00;;;;;3.87;100.00;101307.06;5057199;28;45801;-85
2022/01/07 05:57:57;;;;;;;;;13.00;6.33;;;;;3.90;100.00;101301.69;5056808;28;45349;-84
2022/01/07 06:00:23;;;;;;;;;3.50;2.50;;;;;3.90;100.00;101300.84;5074146;27;45508;-84
2022/01/07 06:02:48;;;;;;;;;8.00;4.50;;;;;3.92;100.00;101301.66;5058537;28;45063;-85
2022/01/07 06:05:14;;;;;;;;;10.00;7.00;;;;;3.93;100.00;101300.75;5056841;28;44663;-85
2022/01/07 06:07:39;;;;;;;;;7.00;7.00;;;;;3.91;100.00;101300.78;5058859;28;44887;-84
2022/01/07 06:10:06;;;;;;;;;8.75;7.00;;;;;3.97;100.00;101305.00;5058922;28;45195;-85
2022/01/07 06:12:32;;;;;;;;;6.50;4.00;;;;;3.96;100.00;101298.88;5061411;28;44742;-85
2022/01/07 06:14:59;;;;;;;;;8.00;6.67;;;;;3.99;100.00;101311.06;5067162;28;44744;-85
2022/01/07 06:17:25;;;;;;;;;8.00;6.00;;;;;4.01;100.00;101311.88;5070374;28;44789;-85
2022/01/07 06:19:50;;;;;;;;;11.00;6.67;;;;;4.02;100.00;101305.72;5066311;28;45290;-85
2022/01/07 06:22:16;;;;;;;;;7.25;6.00;;;;;4.05;100.00;101313.50;5058418;28;45509;-85
2022/01/07 06:24:41;;;;;;;;;8.00;5.67;;;;;4.05;100.00;101300.34;5062087;28;45532;-86
2022/01/07 06:27:07;;;;;;;;;8.00;7.00;;;;;4.10;100.00;101316.84;5062706;28;44841;-85
2022/01/07 06:29:32;;;;;;;;;6.33;4.67;;;;;4.11;100.00;101314.19;5061315;28;46709;-85
2022/01/07 06:31:58;;;;;;;;;5.67;5.67;;;;;4.16;100.00;101321.06;5064625;28;44788;-86
2022/01/07 06:34:23;;;;;;;;;7.00;4.67;;;;;4.21;100.00;101319.16;5066481;28;44830;-84
2022/01/07 06:36:50;;;;;;;;;6.00;6.00;;;;;4.23;100.00;101322.59;5064873;28;44901;-85
2022/01/07 06:39:19;;;;;;;;;10.50;6.75;;;;;4.24;100.00;101314.66;5064781;28;45052;-85
2022/01/07 06:41:48;;;;;;;;;8.00;8.00;;;;;4.30;100.00;101316.22;5063970;28;44777;-85
2022/01/07 06:44:15;;;;;;;;;7.33;6.33;;;;;4.32;100.00;101312.66;5064453;28;44796;-86
2022/01/07 06:46:41;;;;;;;;;6.67;6.67;;;;;4.36;100.00;101306.38;5066687;28;44792;-84
2022/01/07 06:49:06;;;;;;;;;8.00;7.00;;;;;4.38;100.00;101308.97;5065393;28;45156;-85
2022/01/07 06:51:32;;;;;;;;;6.25;6.00;;;;;4.43;100.00;101306.19;5063439;28;45014;-86
2022/01/07 06:53:58;;;;;;;;;13.25;8.75;;;;;4.42;100.00;101309.72;5065777;28;45114;-84
2022/01/07 06:56:24;;;;;;;;;10.25;7.25;;;;;4.48;100.00;101301.63;5065509;28;45436;-86
2022/01/07 06:58:49;;;;;;;;;7.25;5.50;;;;;4.51;100.00;101299.78;5070045;27;44989;-86
2022/01/07 07:01:15;;;;;;;;;9.00;5.00;;;;;4.54;100.00;101301.41;5065861;28;44749;-87
2022/01/07 07:03:41;;;;;;;;;9.00;7.00;;;;;4.56;100.00;101300.47;5061355;28;44773;-86
2022/01/07 07:06:07;;;;;;;;;12.00;9.00;;;;;4.57;100.00;101302.19;5060035;28;45244;-85
2022/01/07 07:08:32;;;;;;;;;10.50;8.75;;;;;4.57;100.00;101302.19;5059286;28;46962;-85
2022/01/07 07:10:57;;;;;;;;;10.00;7.00;;;;;4.61;100.00;101302.97;5060447;28;44797;-85
2022/01/07 07:13:23;;;;;;;;;7.75;7.75;;;;;4.61;100.00;101314.34;5059434;28;45536;-85
2022/01/07 07:15:49;;;;;;;;;6.00;6.00;;;;;4.62;100.00;101323.09;5061374;28;45351;-85
2022/01/07 07:18:14;;;;;;;;;9.00;5.25;;;;;4.62;100.00;101323.09;5061606;28;45347;-84
2022/01/07 07:20:40;;;;;;;;;8.25;4.00;;;;;4.65;100.00;101325.63;5066292;28;44685;-87
2022/01/07 07:23:05;;;;;;;;;15.50;7.00;;;;;4.70;100.00;101323.72;5066669;28;44850;-87
2022/01/07 07:25:31;;;;;;;;;7.00;7.00;;;;;4.69;100.00;101323.75;5061014;28;44744;-87
2022/01/07 07:27:56;;;;;;;;;10.75;7.00;;;;;4.75;100.00;101334.09;5061847;28;45280;-88
2022/01/07 07:30:22;;;;;;;;;9.00;4.00;;;;;4.80;100.00;101334.78;5067237;28;44769;-87
2022/01/07 07:32:51;;;;;;;;;7.75;5.50;;;;;4.82;100.00;101327.69;5073694;28;44840;-89
2022/01/07 07:38:14;;;;;;;;;6.50;5.25;;;;;4.83;100.00;101324.13;5074486;28;45149;-87
2022/01/07 07:40:39;;;;;;;;;9.33;7.00;;;;;4.86;100.00;101329.31;5072132;28;44734;-88
2022/01/07 07:43:06;;;;;;;;;5.00;3.50;;;;;4.88;100.00;101328.34;5092425;27;44855;-88
2022/01/07 07:45:31;;;;;;;;;8.50;7.50;;;;;4.90;100.00;101338.84;5091162;27;44830;-88
2022/01/07 07:47:58;;;;;;;;;7.25;7.25;;;;;4.92;100.00;101336.13;5092646;27;45049;-88
2022/01/07 07:50:23;;;;;;;;;11.75;8.75;;;;;4.96;100.00;101341.25;5093584;27;44771;-88
2022/01/07 07:52:49;;;;;;;;;3.50;3.00;;;;;4.96;100.00;101343.88;5093798;28;45467;-87
2022/01/07 07:55:14;;;;;;;;;4.00;4.00;;;;;5.00;100.00;101350.78;5071266;28;44891;-84
2022/01/07 07:57:40;;;;;;;;;4.50;3.50;;;;;5.01;100.00;101363.00;5082737;28;45689;-87
2022/01/07 08:00:07;;;;;;;;;9.50;8.50;;;;;5.04;100.00;101359.44;5085635;27;44835;-87
2022/01/07 08:02:32;;;;;;;;;8.50;8.50;;;;;5.07;100.00;101362.78;5084293;27;45491;-86
2022/01/07 08:04:58;;;;;;;;;9.50;8.75;;;;;5.09;100.00;101363.63;5065015;28;44992;-87
2022/01/07 08:07:23;;;;;;;;;9.50;8.50;;;;;5.12;100.00;101376.66;5083773;28;45090;-87
2022/01/07 08:09:51;;;;;;;;;8.00;8.00;;;;;5.14;100.00;101380.13;5082398;27;44719;-88
2022/01/07 08:12:20;;;;;;;;;6.00;6.00;;;;;5.15;100.00;101378.34;5080900;28;45247;-88
2022/01/07 08:17:30;;;;;;;;;11.00;7.00;;;;;5.09;100.00;101382.06;5085207;27;44872;-89
2022/01/07 08:19:56;;;;;;;;;7.00;7.00;;;;;5.09;100.00;101373.31;5087391;28;44705;-87
2022/01/07 08:22:21;;;;;;;;;7.25;7.25;;;;;5.12;100.00;101381.06;5088926;27;44782;-87
2022/01/07 08:24:46;;;;;;;;;4.50;4.50;;;;;5.11;100.00;101376.72;5091616;27;45533;-86
2022/01/07 08:27:12;;;;;;;;;8.00;8.00;;;;;5.07;100.00;101369.84;5090012;28;45363;-87
2022/01/07 08:29:41;;;;;;;;;6.75;6.75;;;;;5.04;100.00;101376.09;5082225;28;44917;-88
2022/01/07 08:34:54;;;;;;;;;7.75;5.00;;;;;5.13;100.00;101374.91;5081699;28;44692;-89
2022/01/07 08:37:28;;;;;;;;;9.50;7.00;;;;;5.15;100.00;101373.09;5079673;27;46059;-87
2022/01/07 08:39:55;;;;;;;;;7.00;7.00;;;;;5.21;100.00;101377.28;5061929;28;44837;-88
2022/01/07 08:42:23;;;;;;;;;10.00;5.00;;;;;5.23;100.00;101373.69;5063205;28;44803;-90
2022/01/07 08:44:51;;;;;;;;;9.00;6.25;;;;;5.26;100.00;101360.38;5064347;28;45272;-89
2022/01/07 08:47:17;;;;;;;;;4.50;4.50;;;;;5.27;100.00;101361.25;5044873;28;45040;-88
2022/01/07 08:49:42;;;;;;;;;7.00;5.00;;;;;5.27;100.00;101366.50;5051499;28;44657;-87
2022/01/07 08:52:08;;;;;;;;;7.50;6.75;;;;;5.25;100.00;101374.47;5069038;28;44760;-87
2022/01/07 08:54:33;;;;;;;;;9.50;7.00;;;;;5.25;100.00;101369.22;5045261;28;45352;-86
2022/01/07 08:56:59;;;;;;;;;4.00;4.00;;;;;5.26;100.00;101367.44;5061255;28;45627;-86
2022/01/07 08:59:24;;;;;;;;;7.50;4.00;;;;;5.21;100.00;101359.69;5061209;28;44984;-88
2022/01/07 09:01:49;;;;;;;;;4.00;4.00;;;;;5.21;100.00;101330.72;5063055;28;45140;-86
2022/01/07 09:04:15;;;;;;;;;5.00;4.00;;;;;5.22;100.00;101306.13;5063339;28;44901;-86
2022/01/07 09:06:40;;;;;;;;;7.25;4.75;;;;;5.25;100.00;101321.81;5062483;28;45561;-87
2022/01/07 09:09:06;;;;;;;;;4.75;4.00;;;;;5.22;100.00;101319.28;5064480;28;45407;-87
2022/01/07 09:11:31;;;;;;;;;8.75;8.00;;;;;5.25;100.00;101323.56;5059287;28;45168;-85
2022/01/07 09:13:58;;;;;;;;;7.00;7.00;;;;;5.31;100.00;101305.78;5058356;28;44952;-87
2022/01/07 09:16:25;;;;;;;;;5.50;5.50;;;;;5.34;100.00;101307.44;5059899;28;45423;-87
2022/01/07 09:18:51;;;;;;;;;2.50;1.25;;;;;5.37;100.00;101315.25;5041539;28;44836;-87
2022/01/07 09:21:17;;;;;;;;;9.50;7.50;;;;;5.39;100.00;101322.16;5060643;28;44805;-87
2022/01/07 09:23:43;;;;;;;;;9.25;7.75;;;;;5.41;100.00;101330.91;5060160;28;45393;-86
2022/01/07 09:26:10;;;;;;;;;4.00;3.00;;;;;5.43;100.00;101345.78;5058556;28;46579;-87
2022/01/07 09:28:36;;;;;;;;;2.00;2.00;;;;;5.37;100.00;101336.34;5059967;28;44766;-86
2022/01/07 09:31:02;;;;;;;;;1.00;1.00;;;;;5.40;100.00;101337.06;5058775;28;44900;-86
2022/01/07 09:33:28;;;;;;;;;5.25;4.25;;;;;5.45;100.00;101339.53;5058123;28;45308;-88
2022/01/07 09:35:53;;;;;;;;;3.00;3.00;;;;;5.48;100.00;101347.34;5042492;28;47196;-87
2022/01/07 09:38:18;;;;;;;;;4.00;4.00;;;;;5.48;100.00;101355.25;5059753;28;45241;-87
2022/01/07 09:40:44;;;;;;;;;4.00;4.00;;;;;5.48;100.00;101364.91;5060544;28;44825;-88
2022/01/07 09:43:15;;;;;;;;;5.75;5.00;;;;;5.51;100.00;101370.94;5075567;28;44754;-92
2022/01/07 09:45:40;;;;;;;;;5.00;5.00;;;;;5.55;100.00;101361.13;5070387;28;45152;-89
2022/01/07 09:48:08;;;;;;;;;5.00;5.00;;;;;5.63;100.00;101357.31;5070650;28;44817;-91
2022/01/07 09:50:34;;;;;;;;;7.00;6.50;;;;;5.72;100.00;101352.63;5075785;28;44638;-90
2022/01/07 09:53:13;;;;;;;;;9.00;8.25;;;;;5.76;100.00;101354.25;5079124;28;45207;-90
2022/01/07 09:55:39;;;;;;;;;4.00;4.00;;;;;5.83;100.00;101348.66;5062637;28;45350;-92
2022/01/07 09:58:05;;;;;;;;;5.50;4.50;;;;;5.85;100.00;101341.56;5065241;28;44757;-90
2022/01/07 10:00:38;;;;;;;;;5.00;5.00;;;;;5.89;100.00;101339.66;5066504;28;44693;-89
2022/01/07 10:03:06;;;;;;;;;6.75;5.00;;;;;5.92;100.00;101331.69;5065192;28;44857;-87
2022/01/07 10:05:40;;;;;;;;;4.00;4.00;;;;;5.98;100.00;101331.44;5064445;28;46993;-90
2022/01/07 10:08:21;;;;;;;;;7.50;5.25;;;;;6.08;100.00;101330.16;5063653;28;44736;-87
2022/01/07 10:11:07;;;;;;;;;7.00;7.00;;;;;6.18;100.00;101328.88;5061669;28;45477;-85
2022/01/07 10:13:33;;;;;;;;;17.25;8.50;;;;;6.31;100.00;101329.28;5058409;28;44994;-86
2022/01/07 10:16:12;;;;;;;;;12.00;3.50;;;;;6.50;100.00;101315.34;5042405;28;46796;-87
2022/01/07 10:18:38;;;;;;;;;6.00;4.75;;;;;6.63;100.00;101298.94;5058475;28;45323;-86
2022/01/07 10:21:08;;;;;;;;;2.00;1.25;;;;;6.67;100.00;101304.94;5059483;28;45359;-85
2022/01/07 10:23:33;;;;;;;;;10.50;8.00;;;;;6.75;100.00;101318.69;5060567;28;44828;-87
2022/01/07 10:25:59;;;;;;;;;6.75;5.00;;;;;6.74;100.00;101316.13;5061430;28;46494;-86
2022/01/07 10:28:31;;;;;;;;;8.75;8.75;;;;;6.79;100.00;101314.13;5062991;28;44777;-85
2022/01/07 10:30:59;;;;;;;;;11.75;9.75;;;;;6.85;100.00;101301.53;5074945;28;45258;-86
2022/01/07 10:33:25;;;;;;;;;10.75;9.50;;;;;6.90;100.00;101291.63;5086054;27;44801;-88
2022/01/07 10:35:59;;;;;;;;;10.00;10.00;;;;;6.89;100.00;101291.69;5066667;28;45254;-88
2022/01/07 10:38:27;;;;;;;;;5.25;5.00;;;;;6.86;100.00;101282.09;5070891;28;44760;-91
2022/01/07 10:40:59;;;;;;;;;3.00;3.00;;;;;6.94;100.00;101282.66;5087087;28;44810;-89
2022/01/07 10:43:32;;;;;;;;;7.25;5.75;;;;;6.91;100.00;101285.44;5084414;28;44836;-89
2022/01/07 10:46:00;;;;;;;;;9.75;7.25;;;;;6.95;100.00;101275.56;5086246;28;45724;-89
2022/01/07 10:48:36;;;;;;;;;4.60;4.40;;;;;7.03;100.00;101272.63;5078684;27;44834;-88
2022/01/07 10:51:09;;;;;;;;;6.00;4.00;;;;;7.13;100.00;101268.63;5062926;28;44798;-89
2022/01/07 10:53:35;;;;;;;;;2.00;2.00;;;;;7.13;100.00;101250.16;5075098;28;44825;-89
2022/01/07 10:56:03;;;;;;;;;5.00;4.00;;;;;7.10;100.00;101266.13;5063306;28;45381;-88
2022/01/07 10:58:39;;;;;;;;;6.40;5.00;;;;;7.07;100.00;101271.56;5063529;28;44748;-87
2022/01/07 11:01:04;;;;;;;;;4.50;3.00;;;;;7.08;100.00;101273.28;5042938;28;45443;-88
2022/01/07 11:03:33;;;;;;;;;6.25;4.75;;;;;7.17;100.00;101276.38;5074221;28;44830;-88
2022/01/07 11:06:01;;;;;;;;;10.75;6.75;;;;;7.29;100.00;101269.66;5064320;27;45443;-88
2022/01/07 11:08:26;;;;;;;;;2.80;2.80;;;;;7.50;100.00;101273.16;5085065;27;44824;-87
2022/01/07 11:10:52;;;;;;;;;4.50;4.50;;;;;7.57;100.00;101279.84;5061758;28;45339;-87
2022/01/07 11:13:18;;;;;;;;;5.00;1.00;;;;;7.62;100.00;101282.28;5064553;28;44921;-87
2022/01/07 11:15:43;;;;;;;;;5.00;3.50;;;;;7.73;100.00;101270.28;5088267;28;45190;-88
2022/01/07 11:18:09;;;;;;;;;2.25;2.00;;;;;7.75;100.00;101267.59;5083648;28;45439;-88
2022/01/07 11:20:35;;;;;;;;;2.75;2.75;;;;;7.73;100.00;101272.06;5061484;28;45436;-86
2022/01/07 11:23:00;;;;;;;;;1.00;1.00;;;;;7.59;100.00;101263.91;5073005;27;44886;-87
2022/01/07 11:25:32;;;;;;;;;1.00;1.00;;;;;7.70;100.00;101274.88;5074246;27;46474;-86